• Join FlightAware (Why Join?)
  • Login
  • US Flag 
Rudolph Flight #1: Arrived! 
05:52PM EST


 

Airport Tracker/Info


-or-


 

Live Flight TrackerFlight Track Log ✈ JZA8726 ✈ 17-Jun-2014 ✈ CYQB - CYZV

Flight Track Log - Related Links

Times and Time Zones

All times are in EDT time to prevent confusion due to time zone crossing. See the JZA8726 flight status page for this flight to view local times or setup timezone preferences in your user account.

Time Position Orientation Groundspeed Altitude Reporting Facility
EDT Latitude Longitude Course Direction KTS MPH feet Rate Location/Type
08:23PM 46.7333 -71.4333 199° South 120 138 3,000  Level Montreal Center
08:24PM 46.7000 -71.4167 161° South 160 184 4,300 1,380 Climbing Montreal Center
08:25PM 46.7000 -71.3500 90° East 160 184 5,800 1,140 Climbing Montreal Center
08:26PM 46.7500 -71.3167 25° Northeast 190 219 6,600 1,020 Climbing Montreal Center
08:27PM 47.1228 -70.9541 41° Northeast  Level FlightAware Approximate
08:27PM 46.8000 -71.2833 25° Northeast 190 219 7,900  Level Montreal Center
08:28PM 46.8500 -71.2333 34° Northeast 200 230 9,000 1,020 Climbing Montreal Center
08:29PM 46.9000 -71.2000 24° Northeast 200 230 10,000 1,020 Climbing Montreal Center
08:30PM 46.9500 -71.1667 24° Northeast 210 242 11,100 1,080 Climbing Montreal Center
08:31PM 47.0000 -71.1167 34° Northeast 220 253 12,200 1,200 Climbing Montreal Center
08:32PM 47.0500 -71.0833 24° Northeast 200 230 13,600 1,080 Climbing Montreal Center
08:33PM 47.0833 -71.0667 19° North 190 219 14,400 840 Climbing Montreal Center
08:34PM 47.1333 -70.9833 49° Northeast 210 242 15,300 720 Climbing Montreal Center
08:35PM 47.1833 -70.9333 34° Northeast 210 242 15,900 600 Climbing Montreal Center
08:36PM 47.2167 -70.8667 54° Northeast 220 253 16,500 540 Climbing Montreal Center
08:37PM 47.2667 -70.8000 42° Northeast 220 253 17,000 540 Climbing Montreal Center
08:38PM 47.3167 -70.7333 42° Northeast 230 265 17,600 660 Climbing Montreal Center
08:39PM 47.3667 -70.6667 42° Northeast 220 253 18,400 600 Climbing Montreal Center
08:40PM 47.4000 -70.6000 54° Northeast 220 253 18,900 360 Climbing Montreal Center
08:41PM 47.4500 -70.5500 34° Northeast 230 265 19,200 420 Climbing Montreal Center
08:42PM 47.5000 -70.4667 48° Northeast 230 265 19,800 660 Climbing Montreal Center
08:43PM 47.5333 -70.4167 45° Northeast 220 253 20,600 480 Climbing Montreal Center
08:44PM 47.5833 -70.3667 34° Northeast 220 253 20,800 180 Climbing Montreal Center
08:45PM 47.6333 -70.2833 48° Northeast 230 265 21,000 60 Climbing Montreal Center
08:46PM 47.6667 -70.2333 45° Northeast 240 276 21,000  Level Montreal Center
08:47PM 47.7333 -70.1500 40° Northeast 250 288 21,000  Level Montreal Center
08:48PM 47.7833 -70.0667 48° Northeast 260 299 21,000  Level Montreal Center
08:49PM 47.8500 -70.0000 34° Northeast 260 299 21,000  Level Montreal Center
08:50PM 47.9000 -69.9333 42° Northeast 260 299 21,000  Level Montreal Center
08:52PM 48.0000 -69.7833 45° Northeast 260 299 21,000  Level Montreal Center
08:53PM 48.0500 -69.7000 48° Northeast 260 299 21,000  Level Montreal Center
08:54PM 48.1167 -69.6167 40° Northeast 260 299 21,000  Level Montreal Center
08:56PM 48.2167 -69.4833 42° Northeast 270 311 21,000  Level Montreal Center
08:57PM 48.2667 -69.4000 48° Northeast 260 299 21,000  Level Montreal Center
08:58PM 48.3333 -69.3333 34° Northeast 260 299 21,000  Level Montreal Center
08:59PM 48.4000 -69.2500 40° Northeast 260 299 21,000  Level Montreal Center
09:00PM 48.4333 -69.1667 59° Northeast 270 311 21,000  Level Montreal Center
09:01PM 48.4833 -69.0833 48° Northeast 270 311 21,000  Level Montreal Center
09:02PM 48.5500 -69.0333 26° Northeast 270 311 21,000  Level Montreal Center
09:03PM 48.6167 -68.9500 40° Northeast 270 311 21,000  Level Montreal Center
09:04PM 48.6500 -68.8667 59° Northeast 270 311 21,000  Level Montreal Center
09:05PM 48.7167 -68.7833 40° Northeast 270 311 21,000  Level Montreal Center
09:06PM 48.7667 -68.7000 48° Northeast 280 322 21,000  Level Montreal Center
09:07PM 48.8167 -68.6333 41° Northeast 280 322 21,000  Level Montreal Center
09:08PM 48.8833 -68.5500 39° Northeast 280 322 21,000  Level Montreal Center
09:09PM 48.9333 -68.4667 48° Northeast 280 322 21,000  Level Montreal Center
09:10PM 49.0000 -68.3667 45° Northeast 280 322 21,000  Level Montreal Center
09:11PM 49.0500 -68.3167 33° Northeast 280 322 21,000  Level Montreal Center
09:12PM 49.1000 -68.2333 47° Northeast 280 322 21,000  Level Montreal Center
09:13PM 49.1667 -68.1333 44° Northeast 280 322 21,000  Level Montreal Center
09:14PM 49.2000 -68.0500 59° Northeast 280 322 21,000 -240 Level Montreal Center
09:15PM 49.2667 -67.9500 44° Northeast 280 322 20,600 -660 Descending Montreal Center
09:16PM 49.3167 -67.8500 52° Northeast 290 334 19,700 -1,080 Descending Montreal Center
09:17PM 49.3667 -67.7667 47° Northeast 310 357 18,500 -1,260 Descending Montreal Center
09:18PM 49.4333 -67.6500 49° Northeast 320 368 17,200 -1,260 Descending Montreal Center
09:19PM 49.4833 -67.5333 57° Northeast 320 368 16,000 -1,200 Descending Montreal Center
09:20PM 49.5500 -67.4500 39° Northeast 320 368 14,800 -1,200 Descending Montreal Center
09:21PM 49.6167 -67.3333 49° Northeast 310 357 13,600 -1,200 Descending Montreal Center
09:22PM 49.6667 -67.2500 47° Northeast 310 357 12,400 -1,200 Descending Montreal Center
09:23PM 49.7167 -67.1667 47° Northeast 300 345 11,300 -1,200 Descending Montreal Center
09:24PM 49.7667 -67.0500 56° Northeast 300 345 10,000 -1,200 Descending Montreal Center
09:25PM 49.8333 -66.9500 44° Northeast 300 345 8,900 -1,200 Descending Montreal Center
09:26PM 49.8833 -66.8667 47° Northeast 300 345 7,600 -1,260 Descending Montreal Center
09:27PM 49.9333 -66.7833 47° Northeast 290 334 6,400 -1,200 Descending Montreal Center
09:28PM 49.9833 -66.6667 56° Northeast 280 322 5,300 -1,080 Descending Montreal Center
09:29PM 50.0333 -66.5667 52° Northeast 290 334 4,300 -1,020 Descending Montreal Center
09:30PM 50.0833 -66.4833 47° Northeast 280 322 3,300 -900 Descending Montreal Center
09:31PM 50.1500 -66.4167 33° Northeast 250 288 2,500 -840 Descending Montreal Center
09:32PM 50.1667 -66.3667 62° Northeast 200 230 1,700 -780 Descending Montreal Center
09:33PM 50.2000 -66.3000 52° Northeast 160 184 1,000 -780 Descending Montreal Center
09:34PM 50.2167 -66.2500 62° Northeast 130 150 200 -420 Descending Montreal Center
09:35PM 50.2167 -66.2167 90° East 110 127 200  Level Montreal Center